Time;durP1;ratioP1;P1;durP2;ratioP2;P2;SDS_P1;SDS_P2;PMS_P1;PMS_P2;Temp;Humidity;BMP_temperature;BMP_pressure;BME280_temperature;BME280_humidity;BME280_pressure;Samples;Min_cycle;Max_cycle;Signal;HPM_P1;HPM_P2
2022/10/25 00:02:19;;;;;;;6.20;2.13;;;;;;;;;;5068851;28;20524;-84
2022/10/25 00:04:45;;;;;;;5.78;2.08;;;;;;;;;;5054014;28;20071;-85
2022/10/25 00:07:10;;;;;;;3.88;2.03;;;;;;;;;;5071521;28;20037;-85
2022/10/25 00:09:36;;;;;;;6.57;2.13;;;;;;;;;;5087257;28;20392;-85
2022/10/25 00:12:02;;;;;;;4.82;2.00;;;;;;;;;;5053772;28;20044;-85
2022/10/25 00:14:27;;;;;;;5.45;2.35;;;;;;;;;;5054098;28;20040;-86
2022/10/25 00:16:53;;;;;;;5.18;2.08;;;;;;;;;;5070054;28;20063;-85
2022/10/25 00:19:18;;;;;;;7.65;2.30;;;;;;;;;;5072927;28;20029;-85
2022/10/25 00:21:44;;;;;;;5.78;2.55;;;;;;;;;;5070893;28;20135;-85
2022/10/25 00:24:11;;;;;;;6.85;2.67;;;;;;;;;;5055476;28;20043;-85
2022/10/25 00:26:40;;;;;;;6.00;2.65;;;;;;;;;;5040140;28;20078;-85
2022/10/25 00:29:06;;;;;;;5.18;2.20;;;;;;;;;;5070011;28;20506;-85
2022/10/25 00:31:31;;;;;;;8.45;2.47;;;;;;;;;;5039580;28;20040;-85
2022/10/25 00:33:56;;;;;;;7.10;2.60;;;;;;;;;;5046953;28;20837;-85
2022/10/25 00:36:24;;;;;;;4.72;2.25;;;;;;;;;;5072765;28;20368;-85
2022/10/25 00:38:49;;;;;;;4.75;2.15;;;;;;;;;;5052982;28;20063;-85
2022/10/25 00:41:17;;;;;;;6.30;2.67;;;;;;;;;;5071572;28;21129;-85
2022/10/25 00:43:46;;;;;;;4.05;2.50;;;;;;;;;;5041067;28;20152;-86
2022/10/25 00:46:32;;;;;;;4.07;2.35;;;;;;;;;;5068395;28;20044;-86
2022/10/25 00:49:03;;;;;;;6.60;2.30;;;;;;;;;;5036909;28;20045;-85
2022/10/25 00:51:33;;;;;;;7.47;2.40;;;;;;;;;;5045632;28;20517;-85
2022/10/25 00:53:58;;;;;;;6.13;2.35;;;;;;;;;;5073004;28;20086;-85
2022/10/25 00:56:26;;;;;;;4.65;2.40;;;;;;;;;;5041512;28;20033;-85
2022/10/25 00:58:56;;;;;;;4.88;2.30;;;;;;;;;;5079380;28;20407;-85
2022/10/25 01:01:23;;;;;;;6.70;2.13;;;;;;;;;;5044578;28;20032;-85
2022/10/25 01:03:50;;;;;;;7.73;2.33;;;;;;;;;;5040363;28;20492;-85
2022/10/25 01:06:35;;;;;;;6.38;2.47;;;;;;;;;;5071298;28;20101;-85
2022/10/25 01:09:02;;;;;;;5.55;2.25;;;;;;;;;;5040286;28;20123;-85
2022/10/25 01:11:27;;;;;;;4.72;2.20;;;;;;;;;;5079330;28;20041;-85
2022/10/25 01:13:53;;;;;;;7.57;2.50;;;;;;;;;;5038534;28;20657;-85
2022/10/25 01:16:27;;;;;;;5.82;2.35;;;;;;;;;;5036377;28;20556;-85
2022/10/25 01:19:25;;;;;;;10.35;2.97;;;;;;;;;;5055869;28;20061;-86
2022/10/25 01:22:26;;;;;;;8.95;2.35;;;;;;;;;;5069191;28;20155;-86
2022/10/25 01:25:07;;;;;;;6.07;2.25;;;;;;;;;;5033391;28;20124;-86
2022/10/25 01:27:51;;;;;;;5.85;2.60;;;;;;;;;;5041982;28;20534;-86
2022/10/25 01:30:23;;;;;;;6.88;2.33;;;;;;;;;;5066605;28;20045;-86
2022/10/25 01:32:51;;;;;;;5.50;2.35;;;;;;;;;;5072343;28;20514;-86
2022/10/25 01:35:23;;;;;;;6.97;2.42;;;;;;;;;;5045852;28;20487;-86
2022/10/25 01:37:52;;;;;;;5.75;2.28;;;;;;;;;;5059545;28;20430;-86
2022/10/25 01:40:22;;;;;;;7.13;2.20;;;;;;;;;;5053215;28;20104;-85
2022/10/25 01:42:55;;;;;;;5.55;2.33;;;;;;;;;;5039349;28;20040;-86
2022/10/25 01:45:25;;;;;;;5.22;2.28;;;;;;;;;;5070375;28;20037;-85
2022/10/25 01:47:56;;;;;;;6.47;2.20;;;;;;;;;;5051501;28;20380;-85
2022/10/25 01:50:27;;;;;;;5.03;2.58;;;;;;;;;;5087918;28;20035;-85
2022/10/25 01:52:53;;;;;;;4.70;2.28;;;;;;;;;;5040272;28;20729;-85
2022/10/25 01:55:19;;;;;;;6.35;2.05;;;;;;;;;;5062968;28;20049;-86
2022/10/25 01:58:10;;;;;;;8.45;2.03;;;;;;;;;;5087226;28;20037;-85
2022/10/25 02:00:48;;;;;;;7.70;2.65;;;;;;;;;;5034018;28;20491;-86
2022/10/25 02:03:31;;;;;;;5.53;2.20;;;;;;;;;;5050420;28;20040;-86
2022/10/25 02:06:27;;;;;;;4.40;2.28;;;;;;;;;;5053530;28;20135;-86
2022/10/25 02:09:06;;;;;;;5.30;2.20;;;;;;;;;;5038110;28;20063;-85
2022/10/25 02:11:31;;;;;;;5.25;2.33;;;;;;;;;;5069533;28;20040;-85
2022/10/25 02:14:14;;;;;;;5.00;2.20;;;;;;;;;;5068212;28;20340;-86
2022/10/25 02:16:45;;;;;;;5.47;2.40;;;;;;;;;;5044687;28;20041;-86
2022/10/25 02:19:15;;;;;;;8.13;2.35;;;;;;;;;;5044106;28;20476;-85
2022/10/25 02:21:41;;;;;;;4.65;2.10;;;;;;;;;;5020546;28;20042;-85
2022/10/25 02:24:16;;;;;;;5.72;2.58;;;;;;;;;;5023864;28;20480;-85
2022/10/25 02:26:43;;;;;;;5.13;2.20;;;;;;;;;;5049523;28;20041;-85
2022/10/25 02:29:10;;;;;;;4.38;2.05;;;;;;;;;;5069089;28;20043;-85
2022/10/25 02:31:36;;;;;;;5.10;2.35;;;;;;;;;;5072677;28;20039;-85
2022/10/25 02:34:01;;;;;;;6.47;2.38;;;;;;;;;;5069799;28;20471;-85
2022/10/25 02:36:26;;;;;;;4.65;2.30;;;;;;;;;;5048851;28;20040;-85
2022/10/25 02:38:52;;;;;;;4.07;1.90;;;;;;;;;;5078619;28;20396;-85
2022/10/25 02:41:19;;;;;;;5.68;2.03;;;;;;;;;;5052330;28;20036;-84
2022/10/25 02:43:45;;;;;;;5.90;2.37;;;;;;;;;;5036784;28;20044;-85
2022/10/25 02:46:13;;;;;;;5.03;2.08;;;;;;;;;;5036064;28;20480;-85
2022/10/25 02:48:38;;;;;;;5.85;2.00;;;;;;;;;;5037230;28;20383;-85
2022/10/25 02:51:05;;;;;;;6.85;2.33;;;;;;;;;;5066860;28;20039;-86
2022/10/25 02:53:31;;;;;;;5.97;2.20;;;;;;;;;;5039561;28;20565;-85
2022/10/25 02:56:09;;;;;;;5.43;1.90;;;;;;;;;;5054147;28;20055;-86
2022/10/25 02:58:36;;;;;;;4.43;2.25;;;;;;;;;;5044572;28;20037;-86
2022/10/25 03:01:02;;;;;;;4.75;2.00;;;;;;;;;;5067391;28;20037;-86
2022/10/25 03:03:29;;;;;;;5.70;2.05;;;;;;;;;;5035516;28;20812;-86
2022/10/25 03:05:55;;;;;;;;;;;;;;;;;;5068159;28;20071;-86
2022/10/25 03:08:21;;;;;;;4.18;1.83;;;;;;;;;;5038692;28;19964;-85
2022/10/25 03:10:47;;;;;;;4.57;2.03;;;;;;;;;;5049744;28;20040;-85
2022/10/25 03:13:12;;;;;;;5.10;1.90;;;;;;;;;;5070659;28;20074;-85
2022/10/25 03:15:38;;;;;;;4.30;1.83;;;;;;;;;;5063677;28;20052;-86
2022/10/25 03:18:03;;;;;;;4.82;2.00;;;;;;;;;;5041280;28;20531;-86
2022/10/25 03:20:28;;;;;;;5.60;1.80;;;;;;;;;;5087660;28;20396;-86
2022/10/25 03:22:54;;;;;;;3.90;1.45;;;;;;;;;;5055342;28;20334;-85
2022/10/25 03:25:19;;;;;;;4.40;1.52;;;;;;;;;;5070289;28;20037;-86
2022/10/25 03:27:47;;;;;;;4.65;1.63;;;;;;;;;;5071400;28;20056;-85
2022/10/25 03:30:14;;;;;;;3.58;1.63;;;;;;;;;;5073722;28;20581;-85
2022/10/25 03:32:39;;;;;;;4.95;1.67;;;;;;;;;;5074256;28;20144;-86
2022/10/25 03:35:05;;;;;;;4.28;1.60;;;;;;;;;;5042113;28;20151;-86
2022/10/25 03:37:33;;;;;;;7.50;1.52;;;;;;;;;;5072386;28;20038;-86
2022/10/25 03:39:59;;;;;;;4.50;1.77;;;;;;;;;;5042791;28;20028;-85
2022/10/25 03:42:24;;;;;;;5.82;1.50;;;;;;;;;;5070444;28;20032;-86
2022/10/25 03:44:50;;;;;;;4.97;1.63;;;;;;;;;;5069824;28;20032;-86
2022/10/25 03:47:15;;;;;;;5.00;1.38;;;;;;;;;;5069922;28;20055;-86
2022/10/25 03:49:41;;;;;;;6.00;1.50;;;;;;;;;;5073506;28;20090;-85
2022/10/25 03:52:06;;;;;;;5.25;1.52;;;;;;;;;;5042139;28;20074;-86
2022/10/25 03:54:33;;;;;;;4.32;1.30;;;;;;;;;;5055384;28;20102;-86
2022/10/25 03:57:01;;;;;;;4.47;1.70;;;;;;;;;;5047165;28;20052;-85
2022/10/25 03:59:26;;;;;;;4.80;1.25;;;;;;;;;;5054628;28;20036;-86
2022/10/25 04:01:52;;;;;;;3.13;1.02;;;;;;;;;;5072387;28;20038;-84
2022/10/25 04:04:17;;;;;;;3.22;1.33;;;;;;;;;;5071761;28;20036;-84
2022/10/25 04:06:43;;;;;;;7.82;1.27;;;;;;;;;;5038033;28;20048;-85
2022/10/25 04:09:08;;;;;;;3.97;1.10;;;;;;;;;;5039796;28;20406;-84
2022/10/25 04:11:34;;;;;;;3.08;1.17;;;;;;;;;;5088882;28;20037;-84
2022/10/25 04:13:59;;;;;;;4.40;1.67;;;;;;;;;;5042022;28;20047;-84
2022/10/25 04:16:25;;;;;;;4.20;1.27;;;;;;;;;;5071478;28;20064;-84
2022/10/25 04:18:52;;;;;;;3.70;1.30;;;;;;;;;;5041344;28;20068;-84
2022/10/25 04:21:18;;;;;;;5.03;1.38;;;;;;;;;;5070335;28;20037;-84
2022/10/25 04:23:43;;;;;;;5.13;1.50;;;;;;;;;;5039423;28;20115;-84
2022/10/25 04:26:09;;;;;;;3.80;1.27;;;;;;;;;;5079401;28;20445;-83
2022/10/25 04:28:34;;;;;;;3.00;1.27;;;;;;;;;;5047040;28;20394;-84
2022/10/25 04:30:59;;;;;;;5.63;1.60;;;;;;;;;;5041376;28;20514;-84
2022/10/25 04:33:25;;;;;;;3.55;1.20;;;;;;;;;;5041854;28;20025;-84
2022/10/25 04:35:55;;;;;;;4.45;1.98;;;;;;;;;;5053274;28;20033;-85
2022/10/25 04:38:21;;;;;;;5.75;1.77;;;;;;;;;;5052605;28;20043;-84
2022/10/25 04:40:56;;;;;;;2.90;1.10;;;;;;;;;;5039004;28;20032;-84
2022/10/25 04:43:22;;;;;;;4.10;1.48;;;;;;;;;;5038296;28;20570;-84
2022/10/25 04:45:47;;;;;;;6.35;1.60;;;;;;;;;;5040653;28;20098;-84
2022/10/25 04:48:13;;;;;;;3.78;1.60;;;;;;;;;;5069498;28;20548;-86
2022/10/25 04:50:38;;;;;;;4.00;1.50;;;;;;;;;;5066369;28;20488;-86
2022/10/25 04:53:04;;;;;;;5.05;1.80;;;;;;;;;;5051677;28;20052;-86
2022/10/25 04:55:30;;;;;;;4.35;1.35;;;;;;;;;;5067558;28;20038;-82
2022/10/25 04:57:56;;;;;;;4.03;1.15;;;;;;;;;;5038007;28;20040;-84
2022/10/25 05:00:21;;;;;;;6.38;1.75;;;;;;;;;;5038930;28;20098;-84
2022/10/25 05:02:47;;;;;;;4.50;1.40;;;;;;;;;;5037400;28;20029;-84
2022/10/25 05:05:12;;;;;;;4.28;2.22;;;;;;;;;;5040055;28;20037;-85
2022/10/25 05:07:37;;;;;;;4.78;1.52;;;;;;;;;;5053379;28;20040;-83
2022/10/25 05:10:03;;;;;;;4.15;1.45;;;;;;;;;;5052321;28;20423;-83
2022/10/25 05:12:28;;;;;;;3.53;1.42;;;;;;;;;;5039492;28;20496;-84
2022/10/25 05:14:54;;;;;;;3.38;1.42;;;;;;;;;;5039499;28;20505;-84
2022/10/25 05:17:19;;;;;;;4.00;1.40;;;;;;;;;;5031784;28;20041;-83
2022/10/25 05:19:44;;;;;;;4.50;1.42;;;;;;;;;;5045677;28;20860;-83
2022/10/25 05:22:10;;;;;;;4.13;1.10;;;;;;;;;;5044720;28;20037;-83
2022/10/25 05:24:35;;;;;;;3.72;1.33;;;;;;;;;;5038765;28;20101;-84
2022/10/25 05:27:00;;;;;;;6.50;1.20;;;;;;;;;;5071582;28;20036;-84
2022/10/25 05:29:26;;;;;;;3.40;1.23;;;;;;;;;;5039869;28;20040;-84
2022/10/25 05:31:51;;;;;;;4.25;1.25;;;;;;;;;;5070670;28;20568;-84
2022/10/25 05:34:16;;;;;;;4.25;1.20;;;;;;;;;;5071451;28;20492;-84
2022/10/25 05:36:41;;;;;;;3.08;1.10;;;;;;;;;;5049342;28;20033;-85
2022/10/25 05:39:07;;;;;;;2.97;1.25;;;;;;;;;;5038087;28;20111;-85
2022/10/25 05:41:33;;;;;;;3.78;1.13;;;;;;;;;;5044234;28;20037;-85
2022/10/25 05:43:58;;;;;;;5.20;1.10;;;;;;;;;;5037733;28;20045;-84
2022/10/25 05:46:24;;;;;;;2.58;1.00;;;;;;;;;;5066792;28;20573;-84
2022/10/25 05:48:50;;;;;;;3.15;1.40;;;;;;;;;;5037190;28;20036;-84
2022/10/25 05:51:20;;;;;;;3.25;0.90;;;;;;;;;;5039247;28;20131;-84
2022/10/25 05:53:47;;;;;;;4.20;0.95;;;;;;;;;;5054120;28;20033;-84
2022/10/25 05:56:14;;;;;;;3.60;1.15;;;;;;;;;;5070096;28;20071;-85
2022/10/25 05:58:40;;;;;;;5.97;1.20;;;;;;;;;;5069010;28;20387;-84
2022/10/25 06:01:09;;;;;;;4.28;1.30;;;;;;;;;;5068798;28;20025;-84
2022/10/25 06:03:35;;;;;;;2.83;1.00;;;;;;;;;;5069020;28;20099;-84
2022/10/25 06:06:02;;;;;;;6.20;1.20;;;;;;;;;;5039775;28;20045;-84
2022/10/25 06:08:28;;;;;;;3.42;1.20;;;;;;;;;;5037388;28;20048;-84
2022/10/25 06:10:54;;;;;;;3.30;1.10;;;;;;;;;;5084497;28;20055;-83
2022/10/25 06:13:19;;;;;;;3.03;1.17;;;;;;;;;;5041326;28;20044;-83
2022/10/25 06:15:45;;;;;;;2.97;1.10;;;;;;;;;;5071394;28;20025;-84
2022/10/25 06:18:13;;;;;;;4.25;1.30;;;;;;;;;;5068815;28;20048;-83
2022/10/25 06:20:38;;;;;;;2.17;0.90;;;;;;;;;;5072221;28;20029;-84
2022/10/25 06:23:04;;;;;;;5.75;1.05;;;;;;;;;;5066670;28;20032;-84
2022/10/25 06:25:29;;;;;;;3.65;0.82;;;;;;;;;;5060515;28;20507;-83
2022/10/25 06:27:54;;;;;;;2.67;0.88;;;;;;;;;;5051606;28;20506;-84
2022/10/25 06:30:20;;;;;;;2.85;1.00;;;;;;;;;;5052472;28;20483;-84
2022/10/25 06:32:45;;;;;;;3.72;1.00;;;;;;;;;;5066238;28;20124;-84
2022/10/25 06:35:10;;;;;;;5.18;1.30;;;;;;;;;;5036770;28;20115;-84
2022/10/25 06:37:36;;;;;;;2.53;0.95;;;;;;;;;;5038385;28;20052;-84
2022/10/25 06:40:01;;;;;;;2.78;0.88;;;;;;;;;;5068223;28;20033;-84
2022/10/25 06:42:26;;;;;;;2.88;0.90;;;;;;;;;;5043753;28;20036;-84
2022/10/25 06:44:52;;;;;;;3.67;1.00;;;;;;;;;;5068098;28;20032;-86
2022/10/25 06:47:17;;;;;;;3.38;1.00;;;;;;;;;;5066846;28;20033;-83
2022/10/25 06:49:42;;;;;;;5.38;0.90;;;;;;;;;;5070987;28;20073;-82
2022/10/25 06:52:08;;;;;;;3.50;1.05;;;;;;;;;;5055091;28;20479;-85
2022/10/25 06:54:34;;;;;;;2.38;0.85;;;;;;;;;;5073488;28;20396;-85
2022/10/25 06:57:00;;;;;;;4.43;1.10;;;;;;;;;;5087545;28;20330;-84
2022/10/25 06:59:25;;;;;;;2.63;1.08;;;;;;;;;;5053983;28;20067;-84
2022/10/25 07:01:51;;;;;;;2.83;0.90;;;;;;;;;;5070636;28;20032;-85
2022/10/25 07:04:25;;;;;;;2.70;1.08;;;;;;;;;;5055771;28;20029;-85
2022/10/25 07:06:50;;;;;;;2.40;0.85;;;;;;;;;;5048067;28;20123;-84
2022/10/25 07:09:15;;;;;;;4.47;1.20;;;;;;;;;;5070232;28;20115;-83
2022/10/25 07:11:44;;;;;;;4.13;1.75;;;;;;;;;;5056335;28;20091;-84
2022/10/25 07:14:10;;;;;;;3.50;1.30;;;;;;;;;;5087828;28;21143;-84
2022/10/25 07:16:36;;;;;;;4.85;1.33;;;;;;;;;;5046934;28;20741;-86
2022/10/25 07:19:02;;;;;;;3.58;1.10;;;;;;;;;;5059613;28;20044;-86
2022/10/25 07:21:29;;;;;;;5.50;1.27;;;;;;;;;;5052745;28;20446;-85
2022/10/25 07:23:55;;;;;;;2.87;1.00;;;;;;;;;;5056685;28;20084;-85
2022/10/25 07:26:23;;;;;;;5.40;1.27;;;;;;;;;;5044565;28;20721;-87
2022/10/25 07:28:50;;;;;;;3.75;1.10;;;;;;;;;;5088317;28;20044;-86
2022/10/25 07:31:19;;;;;;;3.45;1.20;;;;;;;;;;5038435;28;20112;-85
2022/10/25 07:33:44;;;;;;;3.40;1.30;;;;;;;;;;5072887;28;20033;-86
2022/10/25 07:36:09;;;;;;;3.72;1.10;;;;;;;;;;5087404;28;20028;-86
2022/10/25 07:38:35;;;;;;;2.92;1.00;;;;;;;;;;5039569;28;20048;-85
2022/10/25 07:41:01;;;;;;;3.88;1.20;;;;;;;;;;5039510;28;20021;-86
2022/10/25 07:43:29;;;;;;;9.10;1.83;;;;;;;;;;5042382;28;20514;-85
2022/10/25 07:45:55;;;;;;;3.53;1.00;;;;;;;;;;5070060;28;20021;-85
2022/10/25 07:48:21;;;;;;;2.80;1.10;;;;;;;;;;5054857;28;20044;-88
2022/10/25 07:50:47;;;;;;;2.72;0.80;;;;;;;;;;5042422;28;20033;-86
2022/10/25 07:53:12;;;;;;;3.63;1.00;;;;;;;;;;5041769;28;20029;-88
2022/10/25 07:55:38;;;;;;;5.15;0.90;;;;;;;;;;5054975;28;20514;-87
2022/10/25 07:58:05;;;;;;;4.22;0.88;;;;;;;;;;5040123;28;20033;-86
2022/10/25 08:00:31;;;;;;;2.70;0.80;;;;;;;;;;5046107;28;20033;-84
2022/10/25 08:02:56;;;;;;;3.80;1.00;;;;;;;;;;5038677;28;20045;-90
2022/10/25 08:05:25;;;;;;;2.78;0.77;;;;;;;;;;5070527;28;20171;-88
2022/10/25 08:07:50;;;;;;;6.00;1.02;;;;;;;;;;5052268;28;20037;-88
2022/10/25 08:10:19;;;;;;;4.38;1.48;;;;;;;;;;5037817;28;20032;-88
2022/10/25 08:12:45;;;;;;;2.53;0.70;;;;;;;;;;5054898;28;20124;-88
2022/10/25 08:15:10;;;;;;;2.75;0.90;;;;;;;;;;5038594;28;20132;-89
2022/10/25 08:17:35;;;;;;;3.95;1.35;;;;;;;;;;5070058;28;20404;-87
2022/10/25 08:20:01;;;;;;;2.88;1.10;;;;;;;;;;5069865;28;20033;-87
2022/10/25 08:22:26;;;;;;;3.95;1.27;;;;;;;;;;5053849;28;20171;-86
2022/10/25 08:24:51;;;;;;;5.00;1.30;;;;;;;;;;5041651;28;20462;-87
2022/10/25 08:27:19;;;;;;;3.42;1.20;;;;;;;;;;5053513;28;20037;-86
2022/10/25 08:29:45;;;;;;;3.53;1.25;;;;;;;;;;5034938;28;20037;-86
2022/10/25 08:32:10;;;;;;;3.72;0.93;;;;;;;;;;5045786;28;20058;-86
2022/10/25 08:34:36;;;;;;;4.50;1.30;;;;;;;;;;5040632;28;20116;-86
2022/10/25 08:37:01;;;;;;;5.70;0.95;;;;;;;;;;5040143;28;20059;-86
2022/10/25 08:39:26;;;;;;;4.30;1.00;;;;;;;;;;5037858;28;20082;-86
2022/10/25 08:41:54;;;;;;;4.72;1.25;;;;;;;;;;5080486;28;20490;-87
2022/10/25 08:44:26;;;;;;;4.18;1.50;;;;;;;;;;5052170;28;20036;-87
2022/10/25 08:47:14;;;;;;;3.10;1.13;;;;;;;;;;5086658;28;20041;-87
2022/10/25 08:50:06;;;;;;;5.13;1.58;;;;;;;;;;5086167;28;20052;-87
2022/10/25 08:52:39;;;;;;;6.32;1.45;;;;;;;;;;5036298;28;20033;-86
2022/10/25 08:55:10;;;;;;;6.30;1.50;;;;;;;;;;5067078;28;20057;-86
2022/10/25 08:57:38;;;;;;;5.90;1.40;;;;;;;;;;5087145;28;20886;-87
2022/10/25 09:00:09;;;;;;;;;;;;;;;;;;5075240;28;20039;-85
2022/10/25 09:02:56;;;;;;;3.17;1.35;;;;;;;;;;5067260;28;20011;-86
2022/10/25 09:05:36;;;;;;;6.35;1.60;;;;;;;;;;5080682;28;20048;-86
2022/10/25 09:08:06;;;;;;;5.75;1.50;;;;;;;;;;5067890;28;20122;-87
2022/10/25 09:10:55;;;;;;;5.07;1.30;;;;;;;;;;5057399;28;20507;-86
2022/10/25 09:13:39;;;;;;;4.30;1.40;;;;;;;;;;5051267;28;20071;-86
2022/10/25 09:16:18;;;;;;;6.95;1.20;;;;;;;;;;5056417;28;20037;-86
2022/10/25 09:18:58;;;;;;;5.10;1.42;;;;;;;;;;5078258;28;20044;-87
2022/10/25 09:21:36;;;;;;;3.92;1.40;;;;;;;;;;5083155;28;20488;-90
2022/10/25 09:24:07;;;;;;;2.67;1.10;;;;;;;;;;5039213;28;20479;-86
2022/10/25 09:26:47;;;;;;;4.50;1.20;;;;;;;;;;5086689;28;20048;-87
2022/10/25 09:29:40;;;;;;;3.60;1.00;;;;;;;;;;5055332;28;20021;-87
2022/10/25 09:32:20;;;;;;;4.38;1.23;;;;;;;;;;5068720;28;20351;-87
2022/10/25 09:34:46;;;;;;;3.05;1.00;;;;;;;;;;5038520;28;20032;-83
2022/10/25 09:37:19;;;;;;;5.28;1.55;;;;;;;;;;5039694;28;20033;-82
2022/10/25 09:39:48;;;;;;;2.78;0.90;;;;;;;;;;5051850;28;20383;-81
2022/10/25 09:42:19;;;;;;;5.00;1.20;;;;;;;;;;5060828;28;20108;-84
2022/10/25 09:44:52;;;;;;;3.47;1.33;;;;;;;;;;5056396;28;20474;-82
2022/10/25 09:47:26;;;;;;;2.88;1.15;;;;;;;;;;5035662;28;20854;-87
2022/10/25 09:50:04;;;;;;;4.45;1.30;;;;;;;;;;5053935;28;20033;-87
2022/10/25 09:52:30;;;;;;;4.13;1.30;;;;;;;;;;5065809;28;20460;-89
2022/10/25 09:55:32;;;;;;;4.47;1.13;;;;;;;;;;5051414;28;20127;-86
2022/10/25 09:57:58;;;;;;;3.20;1.05;;;;;;;;;;5055328;28;20044;-86
2022/10/25 10:00:23;;;;;;;5.22;1.30;;;;;;;;;;5054270;28;20170;-86
2022/10/25 10:02:48;;;;;;;3.78;1.00;;;;;;;;;;5038636;28;20032;-87
2022/10/25 10:05:16;;;;;;;4.18;1.00;;;;;;;;;;5044221;28;20043;-87
2022/10/25 10:07:42;;;;;;;3.17;0.95;;;;;;;;;;5078392;28;20102;-87
2022/10/25 10:10:11;;;;;;;5.60;1.20;;;;;;;;;;5071854;28;20037;-87
2022/10/25 10:13:00;;;;;;;6.72;1.10;;;;;;;;;;5059011;28;20036;-87
2022/10/25 10:15:37;;;;;;;3.05;0.88;;;;;;;;;;5044714;28;20498;-87
2022/10/25 10:18:23;;;;;;;2.08;0.90;;;;;;;;;;5084944;28;20036;-86
2022/10/25 10:20:55;;;;;;;3.20;0.98;;;;;;;;;;5068497;28;20451;-87
2022/10/25 10:23:20;;;;;;;2.88;0.85;;;;;;;;;;5055953;28;20032;-87
2022/10/25 10:25:45;;;;;;;3.00;1.08;;;;;;;;;;5057158;28;20059;-87
2022/10/25 10:28:12;;;;;;;3.20;1.13;;;;;;;;;;5071480;28;20036;-87
2022/10/25 10:30:38;;;;;;;2.77;1.10;;;;;;;;;;5041219;28;20731;-87
2022/10/25 10:33:08;;;;;;;2.38;0.80;;;;;;;;;;5042823;28;20033;-88
2022/10/25 10:35:35;;;;;;;2.60;1.13;;;;;;;;;;5087531;28;20075;-85
2022/10/25 10:38:23;;;;;;;2.78;1.00;;;;;;;;;;5075874;28;20123;-85
2022/10/25 10:40:54;;;;;;;4.97;1.38;;;;;;;;;;5042758;28;20491;-84
2022/10/25 10:43:31;;;;;;;4.10;1.33;;;;;;;;;;5071034;28;20041;-85
2022/10/25 10:46:05;;;;;;;3.75;1.33;;;;;;;;;;5063188;28;20036;-85
2022/10/25 10:48:33;;;;;;;3.30;1.20;;;;;;;;;;5082230;28;20051;-85
2022/10/25 10:50:59;;;;;;;4.70;2.10;;;;;;;;;;5036397;28;20098;-85
2022/10/25 10:53:30;;;;;;;4.55;1.50;;;;;;;;;;5044420;28;20040;-85
2022/10/25 10:56:01;;;;;;;2.67;1.15;;;;;;;;;;5042448;28;20441;-85
2022/10/25 10:58:29;;;;;;;3.78;1.45;;;;;;;;;;5056122;28;20045;-85
2022/10/25 11:01:09;;;;;;;4.22;1.10;;;;;;;;;;5072645;28;20123;-86
2022/10/25 11:03:40;;;;;;;4.35;1.10;;;;;;;;;;5039435;28;20039;-85
2022/10/25 11:06:12;;;;;;;4.72;1.20;;;;;;;;;;5055535;28;20405;-86
2022/10/25 11:08:38;;;;;;;3.90;1.10;;;;;;;;;;5040329;28;20037;-84
2022/10/25 11:11:16;;;;;;;4.10;0.88;;;;;;;;;;5048617;28;20128;-84
2022/10/25 11:13:51;;;;;;;;;;;;;;;;;;5071415;28;20044;-83
2022/10/25 11:16:27;;;;;;;5.28;1.02;;;;;;;;;;5041085;28;19913;-82
2022/10/25 11:19:11;;;;;;;5.10;1.30;;;;;;;;;;5047287;28;20301;-82
2022/10/25 11:22:04;;;;;;;3.40;1.15;;;;;;;;;;5070434;28;20127;-84
2022/10/25 11:24:38;;;;;;;3.60;0.88;;;;;;;;;;5086795;28;20539;-82
2022/10/25 11:27:11;;;;;;;2.00;0.82;;;;;;;;;;5073196;28;20048;-84
2022/10/25 11:29:48;;;;;;;2.63;0.88;;;;;;;;;;5071610;28;20041;-84
2022/10/25 11:32:51;;;;;;;4.40;1.00;;;;;;;;;;5057429;28;20114;-84
2022/10/25 11:35:38;;;;;;;4.03;0.80;;;;;;;;;;5045941;28;20562;-85
2022/10/25 11:38:20;;;;;;;2.55;0.75;;;;;;;;;;5042034;28;20040;-83
2022/10/25 11:40:54;;;;;;;5.55;0.95;;;;;;;;;;5069734;28;20040;-83
2022/10/25 11:44:05;;;;;;;3.53;0.90;;;;;;;;;;5041393;28;20036;-84
2022/10/25 11:46:58;;;;;;;2.50;0.82;;;;;;;;;;5050798;28;20053;-83
2022/10/25 11:49:51;;;;;;;3.63;1.38;;;;;;;;;;5057091;28;20036;-84
2022/10/25 11:52:51;;;;;;;4.63;0.80;;;;;;;;;;5062326;28;20400;-83
2022/10/25 11:55:16;;;;;;;5.85;1.35;;;;;;;;;;5041055;28;20040;-82
2022/10/25 11:57:47;;;;;;;2.88;0.88;;;;;;;;;;5055414;28;20045;-83
2022/10/25 12:00:12;;;;;;;2.88;0.90;;;;;;;;;;5059011;28;20032;-83
2022/10/25 12:02:46;;;;;;;3.47;1.10;;;;;;;;;;5056738;28;20049;-84
2022/10/25 12:05:50;;;;;;;2.53;0.90;;;;;;;;;;5055183;28;20526;-84
2022/10/25 12:08:34;;;;;;;4.55;1.00;;;;;;;;;;5051655;28;20421;-83
2022/10/25 12:11:03;;;;;;;5.82;2.03;;;;;;;;;;5073427;28;20063;-84
2022/10/25 12:13:32;;;;;;;8.25;2.67;;;;;;;;;;5052229;28;20442;-84
2022/10/25 12:15:58;;;;;;;3.63;1.10;;;;;;;;;;5056696;28;20029;-83
2022/10/25 12:18:39;;;;;;;4.78;1.20;;;;;;;;;;5088992;28;20048;-84
2022/10/25 12:21:06;;;;;;;2.63;1.08;;;;;;;;;;5070460;28;20041;-84
2022/10/25 12:23:40;;;;;;;4.07;1.00;;;;;;;;;;5056628;28;20389;-83
2022/10/25 12:26:12;;;;;;;3.53;1.10;;;;;;;;;;5074366;28;20029;-83
2022/10/25 12:28:45;;;;;;;3.53;0.95;;;;;;;;;;5070933;28;20384;-83
2022/10/25 12:31:10;;;;;;;3.30;0.90;;;;;;;;;;5058327;28;20123;-84
2022/10/25 12:33:40;;;;;;;5.65;1.05;;;;;;;;;;5055590;28;20108;-84
2022/10/25 12:36:23;;;;;;;2.33;1.00;;;;;;;;;;5057202;28;20680;-84
2022/10/25 12:38:49;;;;;;;3.55;1.30;;;;;;;;;;5070341;28;20033;-84
2022/10/25 12:41:21;;;;;;;2.60;1.30;;;;;;;;;;5054300;28;22700;-85
2022/10/25 12:44:01;;;;;;;3.17;0.90;;;;;;;;;;5039641;28;20040;-84
2022/10/25 12:46:47;;;;;;;5.05;1.25;;;;;;;;;;5050226;28;20041;-85
2022/10/25 12:49:16;;;;;;;4.00;1.10;;;;;;;;;;5046657;28;20124;-85
2022/10/25 12:51:50;;;;;;;3.75;1.50;;;;;;;;;;5038906;28;20399;-85
2022/10/25 12:54:24;;;;;;;3.88;1.30;;;;;;;;;;5055382;28;20488;-85
2022/10/25 12:57:13;;;;;;;5.22;1.50;;;;;;;;;;5055023;28;20041;-84
2022/10/25 12:59:57;;;;;;;3.75;1.20;;;;;;;;;;5052365;28;20095;-85
2022/10/25 13:02:41;;;;;;;4.60;1.48;;;;;;;;;;5055000;28;20439;-84
2022/10/25 13:05:34;;;;;;;4.68;1.35;;;;;;;;;;5056711;28;20072;-84
2022/10/25 13:08:01;;;;;;;6.72;1.50;;;;;;;;;;5062617;28;20052;-85
2022/10/25 13:10:31;;;;;;;4.65;1.98;;;;;;;;;;5069842;28;20025;-85
2022/10/25 13:12:59;;;;;;;4.43;1.33;;;;;;;;;;5054740;28;20037;-85
2022/10/25 13:15:24;;;;;;;4.63;1.77;;;;;;;;;;5045859;28;20607;-85
2022/10/25 13:18:04;;;;;;;6.07;1.60;;;;;;;;;;5037477;28;20108;-84
2022/10/25 13:20:32;;;;;;;4.78;1.42;;;;;;;;;;5069405;28;20502;-84
2022/10/25 13:22:57;;;;;;;4.75;1.70;;;;;;;;;;5055287;28;20115;-84
2022/10/25 13:25:29;;;;;;;3.38;1.20;;;;;;;;;;5045658;28;20037;-84
2022/10/25 13:28:09;;;;;;;3.22;1.40;;;;;;;;;;5061859;28;20071;-86
2022/10/25 13:30:34;;;;;;;3.83;1.33;;;;;;;;;;5061201;28;20029;-85
2022/10/25 13:33:16;;;;;;;4.60;1.42;;;;;;;;;;5039502;28;20395;-86
2022/10/25 13:35:47;;;;;;;3.25;1.70;;;;;;;;;;5061277;28;20040;-84
2022/10/25 13:38:19;;;;;;;3.58;1.70;;;;;;;;;;5055287;28;20115;-85
2022/10/25 13:41:09;;;;;;;6.07;2.17;;;;;;;;;;5038305;28;20084;-85
2022/10/25 13:43:35;;;;;;;6.13;2.38;;;;;;;;;;5049897;28;20036;-86
2022/10/25 13:46:00;;;;;;;4.60;1.90;;;;;;;;;;5070855;28;20490;-85
2022/10/25 13:48:34;;;;;;;6.50;1.90;;;;;;;;;;5040175;28;20041;-86
2022/10/25 13:51:13;;;;;;;6.10;2.05;;;;;;;;;;5053822;28;20496;-86
2022/10/25 13:53:40;;;;;;;5.72;2.38;;;;;;;;;;5066957;28;20044;-87
2022/10/25 13:56:39;;;;;;;4.35;2.50;;;;;;;;;;5039782;28;20029;-87
2022/10/25 13:59:34;;;;;;;4.57;2.58;;;;;;;;;;5036955;28;20033;-86
2022/10/25 14:02:14;;;;;;;3.20;1.70;;;;;;;;;;5054268;28;20484;-87
2022/10/25 14:04:39;;;;;;;4.47;2.10;;;;;;;;;;5038830;28;20068;-87
2022/10/25 14:07:39;;;;;;;5.18;2.28;;;;;;;;;;5052077;28;20067;-87
2022/10/25 14:10:12;;;;;;;4.45;2.13;;;;;;;;;;5055618;28;20037;-86
2022/10/25 14:12:42;;;;;;;4.22;2.00;;;;;;;;;;5038669;28;20041;-87
2022/10/25 14:15:14;;;;;;;5.43;2.17;;;;;;;;;;5035143;28;20036;-86
2022/10/25 14:17:41;;;;;;;3.00;1.70;;;;;;;;;;5043752;28;20151;-86
2022/10/25 14:20:23;;;;;;;5.20;2.08;;;;;;;;;;5056081;28;20029;-86
2022/10/25 14:22:54;;;;;;;4.80;2.20;;;;;;;;;;5067406;28;20037;-86
2022/10/25 14:25:23;;;;;;;5.75;1.80;;;;;;;;;;5050594;28;20040;-85
2022/10/25 14:27:48;;;;;;;3.45;1.80;;;;;;;;;;5068585;28;20041;-87
2022/10/25 14:30:26;;;;;;;5.60;1.60;;;;;;;;;;5036681;28;20040;-85
2022/10/25 14:32:56;;;;;;;5.40;2.00;;;;;;;;;;5046199;28;20449;-87
2022/10/25 14:35:23;;;;;;;7.10;2.08;;;;;;;;;;5044655;28;20388;-86
2022/10/25 14:37:49;;;;;;;4.40;1.80;;;;;;;;;;5042206;28;20526;-87
2022/10/25 14:40:17;;;;;;;4.57;2.00;;;;;;;;;;5045484;28;20037;-88
2022/10/25 14:42:42;;;;;;;4.50;2.50;;;;;;;;;;5057691;28;20044;-87
2022/10/25 14:45:18;;;;;;;4.93;2.22;;;;;;;;;;5037152;28;20496;-86
2022/10/25 14:47:43;;;;;;;4.38;2.40;;;;;;;;;;5052514;28;20076;-86
2022/10/25 14:50:13;;;;;;;7.15;3.22;;;;;;;;;;5061981;28;20091;-85
2022/10/25 14:52:42;;;;;;;5.78;2.60;;;;;;;;;;5052356;28;20380;-86
2022/10/25 14:55:17;;;;;;;3.92;2.22;;;;;;;;;;5040209;28;20028;-86
2022/10/25 14:57:44;;;;;;;5.32;3.25;;;;;;;;;;5043749;28;20036;-87
2022/10/25 15:00:21;;;;;;;7.00;3.55;;;;;;;;;;5064771;28;20443;-85
2022/10/25 15:02:48;;;;;;;6.22;2.97;;;;;;;;;;5054436;28;20032;-87
2022/10/25 15:05:17;;;;;;;8.98;3.17;;;;;;;;;;5037231;28;20040;-86